Time;durP1;ratioP1;P1;durP2;ratioP2;P2;SDS_P1;SDS_P2;PMS_P1;PMS_P2;Temp;Humidity;BMP_temperature;BMP_pressure;BME280_temperature;BME280_humidity;BME280_pressure;Samples;Min_cycle;Max_cycle;Signal;HPM_P1;HPM_P2
2022/09/25 00:02:42;;;;;;;3.28;1.98;;;14.80;95.20;;;;;;10234860;28;20070;-64
2022/09/25 00:07:43;;;;;;;4.10;2.05;;;14.80;95.20;;;;;;10237428;28;20118;-62
2022/09/25 00:12:44;;;;;;;4.70;1.73;;;14.70;95.20;;;;;;10237605;28;20170;-62
2022/09/25 00:17:45;;;;;;;3.83;1.83;;;14.70;95.10;;;;;;10237253;28;20108;-64
2022/09/25 00:22:46;;;;;;;6.00;1.90;;;14.70;95.10;;;;;;10239213;28;20058;-62
2022/09/25 00:27:49;;;;;;;4.18;1.55;;;14.70;95.10;;;;;;10238180;28;20032;-63
2022/09/25 00:32:50;;;;;;;3.72;1.70;;;14.70;95.10;;;;;;10237739;28;20044;-63
2022/09/25 00:37:51;;;;;;;5.35;1.73;;;14.60;95.10;;;;;;10249470;28;20061;-62
2022/09/25 00:42:51;;;;;;;4.40;1.60;;;14.70;95.10;;;;;;10251063;28;20130;-63
2022/09/25 00:48:06;;;;;;;4.93;1.90;;;14.60;95.10;;;;;;10239098;28;20115;-63
2022/09/25 00:53:31;;;;;;;3.17;1.83;;;14.60;95.00;;;;;;10244657;28;20687;-63
2022/09/25 00:58:34;;;;;;;4.40;1.45;;;14.60;95.00;;;;;;10244205;28;20029;-63
2022/09/25 01:03:39;;;;;;;3.58;1.52;;;14.60;95.00;;;;;;10248049;28;20038;-63
2022/09/25 01:08:40;;;;;;;4.43;1.30;;;14.60;95.00;;;;;;10250476;28;20043;-63
2022/09/25 01:13:41;;;;;;;3.60;1.40;;;14.50;95.00;;;;;;10232020;28;20044;-64
2022/09/25 01:19:02;;;;;;;1.75;1.40;;;14.50;95.00;;;;;;10256356;28;20045;-68
2022/09/25 01:24:27;;;;;;;2.08;1.35;;;14.50;94.90;;;;;;10246343;28;20063;-70
2022/09/25 01:29:54;;;;;;;4.45;1.40;;;14.50;94.90;;;;;;10248683;28;20019;-62
2022/09/25 01:35:00;;;;;;;5.18;1.88;;;14.50;94.90;;;;;;10237856;28;20043;-62
2022/09/25 01:40:23;;;;;;;2.85;1.30;;;14.40;95.10;;;;;;10246395;28;20027;-63
2022/09/25 01:45:47;;;;;;;3.03;1.27;;;14.40;94.80;;;;;;10247690;28;20046;-62
2022/09/25 01:51:09;;;;;;;2.85;1.42;;;14.40;94.70;;;;;;10231822;28;20050;-62
2022/09/25 01:56:19;;;;;;;3.00;1.25;;;14.40;94.70;;;;;;10244285;28;20027;-66
2022/09/25 02:01:28;;;;;;;2.05;1.30;;;14.40;94.70;;;;;;10246514;28;20519;-62
2022/09/25 02:06:32;;;;;;;3.80;1.25;;;14.40;94.70;;;;;;10248817;28;20031;-62
2022/09/25 02:11:43;;;;;;;4.45;1.20;;;14.30;94.70;;;;;;10246624;28;20035;-62
2022/09/25 02:16:50;;;;;;;1.92;0.85;;;14.30;94.60;;;;;;10240924;28;20030;-62
2022/09/25 02:22:14;;;;;;;3.38;1.20;;;14.30;94.70;;;;;;10244026;28;20495;-63
2022/09/25 02:27:19;;;;;;;2.47;1.20;;;14.30;94.70;;;;;;10242080;28;20069;-63
2022/09/25 02:32:25;;;;;;;2.80;1.63;;;14.30;94.70;;;;;;10243246;28;20039;-63
2022/09/25 02:37:26;;;;;;;2.05;0.80;;;14.30;94.60;;;;;;10243585;28;20018;-62
2022/09/25 02:42:43;;;;;;;3.33;1.02;;;14.20;94.60;;;;;;10245038;28;20436;-62
2022/09/25 02:47:50;;;;;;;2.65;1.00;;;14.20;94.50;;;;;;10240390;28;20110;-68
2022/09/25 02:52:55;;;;;;;2.97;0.73;;;14.20;94.60;;;;;;10241523;28;20454;-64
2022/09/25 02:58:14;;;;;;;3.67;1.20;;;14.20;94.60;;;;;;10237968;28;20027;-72
2022/09/25 03:03:18;;;;;;;1.85;0.80;;;14.20;94.50;;;;;;10241732;28;20035;-67
2022/09/25 03:08:40;;;;;;;1.85;0.85;;;14.20;94.50;;;;;;10248647;28;20031;-62
2022/09/25 03:13:42;;;;;;;1.60;0.90;;;14.10;94.50;;;;;;10238000;28;20054;-68
2022/09/25 03:18:43;;;;;;;2.50;0.80;;;14.10;94.50;;;;;;10248613;28;20211;-65
2022/09/25 03:23:44;;;;;;;1.55;0.57;;;14.10;94.40;;;;;;10237344;28;20297;-62
2022/09/25 03:28:46;;;;;;;2.40;0.68;;;14.10;94.40;;;;;;10247177;28;20028;-62
2022/09/25 03:33:47;;;;;;;2.65;0.90;;;14.10;94.40;;;;;;10243862;28;20048;-64
2022/09/25 03:38:51;;;;;;;3.20;0.77;;;14.10;94.40;;;;;;10252794;28;20032;-62
2022/09/25 03:43:52;;;;;;;1.73;0.80;;;14.10;94.40;;;;;;10244058;28;20552;-64
2022/09/25 03:48:54;;;;;;;1.08;0.70;;;14.10;94.40;;;;;;10252237;28;20122;-75
2022/09/25 03:53:55;;;;;;;2.47;0.88;;;14.00;94.60;;;;;;10247040;28;20049;-62
2022/09/25 03:58:56;;;;;;;2.35;1.00;;;14.00;94.40;;;;;;10255278;28;20037;-62
2022/09/25 04:03:58;;;;;;;0.80;0.60;;;14.00;94.40;;;;;;10252756;28;20222;-62
2022/09/25 04:08:58;;;;;;;1.73;0.77;;;14.00;94.40;;;;;;10260228;28;20043;-63
2022/09/25 04:13:59;;;;;;;1.30;0.93;;;14.00;94.40;;;;;;10258676;28;20573;-64
2022/09/25 04:19:00;;;;;;;1.77;0.70;;;14.00;94.40;;;;;;10245484;28;20078;-67
2022/09/25 04:29:20;;;;;;;2.15;0.47;;;14.00;94.40;;;;;;10251677;28;20023;-62
2022/09/25 04:34:21;;;;;;;2.17;0.85;;;14.00;94.40;;;;;;10224519;28;20047;-62
2022/09/25 04:39:22;;;;;;;2.80;0.73;;;13.90;94.30;;;;;;10253297;28;20019;-62
2022/09/25 04:44:22;;;;;;;1.27;0.80;;;13.90;94.30;;;;;;10243307;28;20027;-62
2022/09/25 04:49:23;;;;;;;2.13;0.88;;;13.90;94.30;;;;;;10250535;28;20035;-62
2022/09/25 04:54:24;;;;;;;1.90;0.80;;;13.90;94.30;;;;;;10248820;28;20074;-65
2022/09/25 04:59:25;;;;;;;2.05;0.65;;;13.90;94.30;;;;;;10237180;28;20532;-63
2022/09/25 05:04:25;;;;;;;2.25;0.75;;;13.90;94.30;;;;;;10249147;28;20031;-62
2022/09/25 05:09:26;;;;;;;2.05;0.80;;;13.90;94.30;;;;;;10249398;28;20218;-61
2022/09/25 05:14:29;;;;;;;1.75;0.70;;;13.90;94.30;;;;;;10246317;28;20037;-63
2022/09/25 05:19:30;;;;;;;1.83;0.70;;;13.90;94.30;;;;;;10250784;28;20503;-62
2022/09/25 05:24:31;;;;;;;1.65;0.70;;;13.90;94.30;;;;;;10244631;28;20133;-62
2022/09/25 05:29:31;;;;;;;1.02;0.70;;;13.90;94.30;;;;;;10242990;28;20039;-75
2022/09/25 05:34:32;;;;;;;2.13;0.57;;;13.90;94.30;;;;;;10248163;28;20049;-62
2022/09/25 05:39:33;;;;;;;0.43;0.40;;;13.90;94.60;;;;;;10245266;28;20058;-62
2022/09/25 05:44:34;;;;;;;2.47;0.70;;;13.90;94.30;;;;;;10225693;28;20031;-62
2022/09/25 05:49:34;;;;;;;0.90;0.70;;;13.80;94.30;;;;;;10161731;28;20420;-63
2022/09/25 05:54:35;;;;;;;1.00;0.60;;;13.90;94.30;;;;;;10166276;28;20042;-63
2022/09/25 05:59:36;;;;;;;1.52;0.63;;;13.90;94.30;;;;;;10163403;28;20058;-66
2022/09/25 06:04:37;;;;;;;1.02;0.55;;;13.90;94.30;;;;;;10157666;28;20618;-61
2022/09/25 06:09:37;;;;;;;1.38;0.52;;;13.90;94.30;;;;;;10165632;28;20111;-63
2022/09/25 06:14:39;;;;;;;1.55;0.68;;;13.90;94.30;;;;;;10150161;28;20043;-64
2022/09/25 06:19:40;;;;;;;1.70;0.80;;;13.90;94.30;;;;;;10158964;28;20039;-63
2022/09/25 06:24:41;;;;;;;2.22;0.60;;;13.90;94.30;;;;;;10168086;28;20563;-71
2022/09/25 06:29:42;;;;;;;1.88;0.63;;;13.90;94.30;;;;;;10158442;28;20038;-62
2022/09/25 06:34:42;;;;;;;1.85;0.50;;;13.90;94.30;;;;;;10151527;28;20105;-62
2022/09/25 06:39:43;;;;;;;1.75;0.75;;;13.90;94.20;;;;;;10150835;28;20027;-61
2022/09/25 06:44:44;;;;;;;1.50;0.73;;;14.00;94.20;;;;;;10152267;28;20039;-61
2022/09/25 06:49:45;;;;;;;1.23;0.60;;;14.20;94.30;;;;;;10161726;28;20035;-63
2022/09/25 06:54:45;;;;;;;1.67;0.73;;;14.00;94.20;;;;;;10156157;28;20043;-73
2022/09/25 06:59:46;;;;;;;2.10;0.50;;;14.00;94.20;;;;;;10168840;28;20062;-62
2022/09/25 07:04:50;;;;;;;1.88;0.60;;;14.00;94.20;;;;;;10143176;28;20031;-65
2022/09/25 07:09:51;;;;;;;0.77;0.65;;;14.10;94.20;;;;;;10160640;28;20107;-61
2022/09/25 07:14:51;;;;;;;1.58;0.52;;;14.10;94.10;;;;;;10158710;28;20039;-66
2022/09/25 07:19:52;;;;;;;1.10;0.50;;;14.20;94.10;;;;;;10167347;28;20035;-61
2022/09/25 07:24:53;;;;;;;1.23;0.50;;;14.20;94.00;;;;;;10163511;28;20059;-67
2022/09/25 07:29:54;;;;;;;2.42;0.60;;;14.20;94.00;;;;;;10161626;28;20162;-61
2022/09/25 07:34:54;;;;;;;2.13;0.52;;;14.30;94.00;;;;;;10164805;28;20031;-62
2022/09/25 07:39:55;;;;;;;0.80;0.50;;;14.30;94.00;;;;;;10170567;28;20615;-65
2022/09/25 07:44:56;;;;;;;1.35;0.50;;;14.30;94.00;;;;;;10162568;28;20178;-62
2022/09/25 07:49:58;;;;;;;1.25;0.50;;;14.30;94.10;;;;;;10166479;28;20703;-61
2022/09/25 07:54:58;;;;;;;1.95;0.50;;;14.30;94.00;;;;;;10171798;28;20150;-62
2022/09/25 07:59:59;;;;;;;0.98;0.50;;;14.50;94.00;;;;;;10170687;28;20376;-63
2022/09/25 08:05:01;;;;;;;1.00;0.60;;;14.60;93.90;;;;;;10174621;28;20353;-61
2022/09/25 08:10:01;;;;;;;1.30;0.40;;;14.70;93.90;;;;;;10183412;28;20208;-62
2022/09/25 08:15:02;;;;;;;1.50;0.40;;;14.70;93.80;;;;;;10177291;28;20042;-66
2022/09/25 08:20:03;;;;;;;1.40;0.47;;;14.80;93.80;;;;;;10179463;28;20623;-61
2022/09/25 08:25:04;;;;;;;1.13;0.57;;;14.80;93.80;;;;;;10171333;28;20869;-61
2022/09/25 08:30:10;;;;;;;1.83;0.47;;;14.90;93.80;;;;;;10172254;28;20628;-61
2022/09/25 08:35:11;;;;;;;1.38;0.43;;;14.90;93.80;;;;;;10176857;28;20240;-62
2022/09/25 08:40:19;;;;;;;1.60;0.40;;;14.90;93.80;;;;;;10177137;28;20031;-62
2022/09/25 08:50:52;;;;;;;1.10;0.40;;;15.00;93.80;;;;;;10167284;28;20907;-62
2022/09/25 09:01:22;;;;;;;0.70;0.40;;;15.00;93.80;;;;;;10160560;28;20338;-61
2022/09/25 09:06:25;;;;;;;0.88;0.50;;;15.10;93.80;;;;;;10159711;28;20031;-63
2022/09/25 09:11:34;;;;;;;1.38;0.30;;;15.10;93.80;;;;;;10162885;28;20302;-63
2022/09/25 09:16:59;;;;;;;0.60;0.40;;;15.10;93.80;;;;;;10161365;28;20146;-62
2022/09/25 09:22:11;;;;;;;2.25;0.30;;;15.20;93.80;;;;;;10159281;28;20078;-61
2022/09/25 09:27:37;;;;;;;0.40;0.25;;;15.00;93.70;;;;;;10161313;28;20210;-64
2022/09/25 09:33:02;;;;;;;1.00;0.40;;;15.30;93.70;;;;;;10154037;28;20530;-62
2022/09/25 09:38:27;;;;;;;0.50;0.30;;;15.40;93.90;;;;;;10139979;28;20027;-62
2022/09/25 09:44:02;;;;;;;0.68;0.40;;;15.50;93.60;;;;;;10157079;28;20030;-61
2022/09/25 09:49:14;;;;;;;1.25;0.50;;;15.60;93.50;;;;;;10157025;28;20514;-61
2022/09/25 09:54:36;;;;;;;1.95;0.38;;;15.70;93.40;;;;;;10156901;28;20047;-62
2022/09/25 10:00:02;;;;;;;1.00;0.40;;;15.70;93.30;;;;;;10169103;28;20073;-62
2022/09/25 10:05:26;;;;;;;2.47;0.40;;;15.70;93.30;;;;;;10167994;28;20095;-63
2022/09/25 10:10:59;;;;;;;0.52;0.30;;;15.70;93.30;;;;;;10172547;28;20042;-62
2022/09/25 10:16:14;;;;;;;1.13;0.40;;;15.70;93.40;;;;;;10140252;28;20069;-62
2022/09/25 10:21:18;;;;;;;1.92;0.40;;;15.70;93.40;;;;;;10168911;28;20040;-63
2022/09/25 10:26:35;;;;;;;1.27;0.50;;;15.80;93.40;;;;;;10164750;28;20050;-62
2022/09/25 10:31:39;;;;;;;0.68;0.40;;;15.90;93.30;;;;;;10166030;28;20410;-63
2022/09/25 10:36:44;;;;;;;0.90;0.38;;;15.90;93.20;;;;;;10174329;28;20216;-62
2022/09/25 10:41:46;;;;;;;0.40;0.30;;;15.90;93.50;;;;;;10172773;28;20024;-72
2022/09/25 10:52:08;;;;;;;2.22;0.47;;;15.80;93.40;;;;;;10164810;28;20078;-73
2022/09/25 10:57:37;;;;;;;0.63;0.30;;;15.80;93.50;;;;;;10175456;28;20543;-66
2022/09/25 11:02:41;;;;;;;2.40;0.38;;;15.80;93.60;;;;;;10165813;28;20793;-62
2022/09/25 11:07:53;;;;;;;0.73;0.40;;;15.70;93.60;;;;;;10170777;28;20340;-62
2022/09/25 11:12:55;;;;;;;0.73;0.45;;;15.80;93.60;;;;;;10165287;28;20135;-62
2022/09/25 11:17:57;;;;;;;0.38;0.25;;;15.80;93.60;;;;;;10170005;28;20023;-62
2022/09/25 11:23:02;;;;;;;0.50;0.40;;;15.70;93.60;;;;;;10166896;28;20085;-62
2022/09/25 11:28:13;;;;;;;0.82;0.32;;;15.80;93.60;;;;;;10161857;28;20050;-63
2022/09/25 11:33:36;;;;;;;2.40;0.55;;;15.80;93.60;;;;;;10167014;28;20454;-62
2022/09/25 11:44:26;;;;;;;0.50;0.40;;;15.90;93.60;;;;;;10180294;28;20039;-62
2022/09/25 11:49:39;;;;;;;1.85;0.50;;;15.90;93.60;;;;;;10165906;28;20114;-62
2022/09/25 11:55:11;;;;;;;0.40;0.40;;;15.90;93.60;;;;;;10177592;28;20502;-62
2022/09/25 12:00:29;;;;;;;1.35;0.60;;;15.90;93.60;;;;;;10172710;28;20393;-62
2022/09/25 12:05:48;;;;;;;1.48;0.40;;;16.00;93.50;;;;;;10170707;28;20478;-63
2022/09/25 12:11:04;;;;;;;0.75;0.30;;;16.10;93.50;;;;;;10164255;28;20078;-62
2022/09/25 12:16:32;;;;;;;1.33;0.30;;;16.10;93.30;;;;;;10161066;28;20042;-62
2022/09/25 12:21:48;;;;;;;0.85;0.40;;;16.20;93.30;;;;;;10160442;28;20051;-63
2022/09/25 12:27:08;;;;;;;0.90;0.40;;;16.20;93.30;;;;;;10160846;28;20551;-62
2022/09/25 12:32:25;;;;;;;0.20;0.20;;;16.20;93.30;;;;;;10157639;28;20554;-62
2022/09/25 12:37:52;;;;;;;0.98;0.30;;;16.20;93.30;;;;;;10157103;28;20513;-61
2022/09/25 12:43:06;;;;;;;1.58;0.38;;;16.20;93.30;;;;;;10157494;28;20023;-63
2022/09/25 12:48:43;;;;;;;0.40;0.30;;;16.20;93.40;;;;;;10157173;28;20035;-61
2022/09/25 12:53:47;;;;;;;0.80;0.20;;;16.20;93.30;;;;;;10128871;28;20574;-62
2022/09/25 12:58:58;;;;;;;0.63;0.35;;;16.20;93.30;;;;;;10162435;28;20046;-62
2022/09/25 13:04:36;;;;;;;0.98;0.70;;;16.30;93.30;;;;;;10171254;28;20742;-63
2022/09/25 13:09:47;;;;;;;;;;;16.30;93.30;;;;;;10175524;28;20086;-66
2022/09/25 13:15:22;;;;;;;1.48;0.40;;;16.30;93.30;;;;;;10175320;28;20247;-62
2022/09/25 13:20:25;;;;;;;1.95;0.47;;;16.30;93.30;;;;;;10151200;28;20754;-69
2022/09/25 13:25:26;;;;;;;1.58;0.50;;;16.30;93.30;;;;;;10167093;28;20043;-62
2022/09/25 13:30:28;;;;;;;1.33;0.43;;;16.30;93.30;;;;;;10163810;28;20423;-62
2022/09/25 13:35:32;;;;;;;1.17;0.45;;;16.10;93.30;;;;;;10164574;28;20544;-61
2022/09/25 13:40:42;;;;;;;0.40;0.30;;;16.30;93.40;;;;;;10154857;28;20043;-66
2022/09/25 13:45:43;;;;;;;0.90;0.40;;;16.30;93.40;;;;;;10170975;28;20503;-62
2022/09/25 13:50:45;;;;;;;0.50;0.30;;;16.30;93.50;;;;;;10161349;28;20413;-63
2022/09/25 13:55:49;;;;;;;0.65;0.40;;;16.30;93.50;;;;;;10158422;28;20334;-63
2022/09/25 14:00:56;;;;;;;1.65;0.50;;;16.30;93.50;;;;;;10174812;28;20154;-64
2022/09/25 14:06:00;;;;;;;2.47;0.38;;;16.30;93.50;;;;;;10170592;28;20355;-64
2022/09/25 14:11:04;;;;;;;0.30;0.30;;;16.30;93.60;;;;;;10168195;28;20073;-64
2022/09/25 14:16:16;;;;;;;1.33;0.40;;;16.30;93.60;;;;;;10180961;28;20030;-62
2022/09/25 14:21:20;;;;;;;0.40;0.30;;;16.30;93.60;;;;;;10183827;28;20536;-73
2022/09/25 14:26:24;;;;;;;1.38;0.60;;;16.30;93.60;;;;;;10161125;28;20053;-73
2022/09/25 14:31:31;;;;;;;0.50;0.40;;;16.40;93.50;;;;;;10166283;28;20049;-62
2022/09/25 14:37:03;;;;;;;0.75;0.30;;;16.50;93.30;;;;;;10164888;28;20079;-62
2022/09/25 14:42:23;;;;;;;0.98;0.55;;;16.60;93.30;;;;;;10172347;28;20058;-62
2022/09/25 14:47:32;;;;;;;1.05;0.40;;;16.70;93.10;;;;;;10162296;28;20855;-62
2022/09/25 14:52:35;;;;;;;1.13;0.55;;;16.90;92.90;;;;;;10170593;28;20047;-62
2022/09/25 14:57:38;;;;;;;2.15;0.50;;;17.00;92.70;;;;;;10164329;28;20409;-62
2022/09/25 15:02:41;;;;;;;1.83;0.50;;;17.10;92.60;;;;;;10154619;28;20043;-62
2022/09/25 15:07:43;;;;;;;0.88;0.50;;;17.20;92.40;;;;;;10156071;23;20159;-62
2022/09/25 15:12:44;;;;;;;1.13;0.47;;;17.10;92.50;;;;;;10126122;29;20599;-62
2022/09/25 15:17:48;;;;;;;0.70;0.50;;;17.10;92.60;;;;;;10129051;29;20868;-62
2022/09/25 15:23:04;;;;;;;2.58;0.65;;;17.00;92.70;;;;;;10129589;29;20544;-62
2022/09/25 15:28:07;;;;;;;1.85;0.57;;;16.90;92.70;;;;;;10126299;29;20019;-62
2022/09/25 15:33:24;;;;;;;1.23;0.40;;;16.80;92.80;;;;;;10119393;29;20090;-65
2022/09/25 15:38:36;;;;;;;6.15;1.58;;;16.80;92.90;;;;;;10123541;29;20102;-61
2022/09/25 15:43:37;;;;;;;3.92;1.20;;;16.70;92.90;;;;;;10125327;29;20043;-63
2022/09/25 15:48:40;;;;;;;2.28;0.82;;;16.70;93.10;;;;;;10123328;29;20434;-62
2022/09/25 15:53:49;;;;;;;3.83;1.10;;;16.70;93.10;;;;;;10124270;29;20551;-65
2022/09/25 15:58:55;;;;;;;3.75;1.50;;;16.70;93.20;;;;;;10125119;29;20547;-62
2022/09/25 16:09:31;;;;;;;2.72;1.08;;;16.70;93.20;;;;;;10123918;29;20039;-61
2022/09/25 16:14:31;;;;;;;0.73;0.60;;;16.70;93.20;;;;;;10121570;29;20126;-64
2022/09/25 16:19:33;;;;;;;2.40;1.15;;;16.60;93.20;;;;;;10121192;29;20384;-66
2022/09/25 16:24:34;;;;;;;1.92;0.80;;;16.60;93.30;;;;;;10128245;29;20064;-62
2022/09/25 16:29:38;;;;;;;2.85;1.15;;;16.60;93.30;;;;;;10109230;29;20088;-66
2022/09/25 16:34:40;;;;;;;1.58;0.80;;;16.60;93.40;;;;;;10115601;29;20052;-61
2022/09/25 16:39:40;;;;;;;3.78;1.05;;;16.50;93.40;;;;;;10118562;29;20486;-62
2022/09/25 16:44:45;;;;;;;3.97;1.20;;;16.50;93.40;;;;;;10122696;29;20043;-62
2022/09/25 16:49:48;;;;;;;2.22;1.08;;;16.50;93.50;;;;;;10123958;29;20461;-61
2022/09/25 16:54:55;;;;;;;2.50;0.98;;;16.40;93.50;;;;;;10120406;29;20044;-64
2022/09/25 16:59:56;;;;;;;3.95;1.80;;;16.40;93.60;;;;;;10121661;29;20070;-61
2022/09/25 17:04:59;;;;;;;7.18;3.78;;;16.40;93.60;;;;;;10119882;29;20425;-63
2022/09/25 17:10:00;;;;;;;5.40;3.05;;;16.40;93.70;;;;;;10123199;29;20532;-61
2022/09/25 17:15:01;;;;;;;5.22;3.33;;;16.30;93.70;;;;;;10120866;29;20123;-61
2022/09/25 17:20:01;;;;;;;3.75;2.13;;;16.30;93.80;;;;;;10119576;29;20556;-62
2022/09/25 17:25:18;;;;;;;7.00;2.90;;;16.30;93.90;;;;;;10121142;29;20111;-62
2022/09/25 17:30:18;;;;;;;4.40;2.75;;;16.30;93.90;;;;;;10117172;29;20519;-61
2022/09/25 17:35:57;;;;;;;4.75;2.95;;;16.30;94.00;;;;;;10116863;29;20044;-62
2022/09/25 17:41:01;;;;;;;4.35;3.00;;;16.20;94.00;;;;;;10126221;29;20024;-62
2022/09/25 17:46:02;;;;;;;5.55;3.08;;;16.20;94.10;;;;;;10112947;29;20039;-65
2022/09/25 17:51:13;;;;;;;4.40;2.58;;;16.20;94.10;;;;;;10094568;29;20646;-61
2022/09/25 17:56:14;;;;;;;3.88;2.65;;;16.10;94.20;;;;;;10184341;29;20036;-63
2022/09/25 18:01:21;;;;;;;4.30;2.80;;;16.10;94.20;;;;;;10193290;29;20489;-62
2022/09/25 18:06:23;;;;;;;5.22;2.30;;;16.10;94.30;;;;;;10196126;29;20042;-61
2022/09/25 18:11:24;;;;;;;7.13;2.28;;;16.10;94.30;;;;;;10193722;29;20044;-61
2022/09/25 18:16:29;;;;;;;4.97;2.10;;;16.00;94.30;;;;;;10195630;29;20492;-61
2022/09/25 18:26:52;;;;;;;3.75;2.17;;;16.00;94.30;;;;;;10196182;29;20050;-61
2022/09/25 18:31:53;;;;;;;4.53;2.20;;;16.00;94.40;;;;;;10193464;29;20091;-61
2022/09/25 18:36:54;;;;;;;3.03;1.83;;;15.90;94.40;;;;;;10192427;29;20075;-61
2022/09/25 18:41:55;;;;;;;3.00;1.95;;;15.90;94.40;;;;;;10196827;29;20035;-61
2022/09/25 18:46:56;;;;;;;3.70;1.73;;;15.90;94.40;;;;;;10195204;29;20031;-61
2022/09/25 18:51:57;;;;;;;2.95;1.70;;;15.90;94.40;;;;;;10195497;29;20039;-61
2022/09/25 18:56:58;;;;;;;2.50;1.70;;;15.80;94.40;;;;;;10195226;29;20426;-62
2022/09/25 19:01:59;;;;;;;2.78;1.73;;;15.80;94.40;;;;;;10191361;29;20497;-67
2022/09/25 19:06:59;;;;;;;4.47;2.30;;;15.80;94.40;;;;;;10193970;29;20135;-61
2022/09/25 19:12:00;;;;;;;2.45;1.40;;;15.80;94.70;;;;;;10194543;29;20044;-60
2022/09/25 19:17:01;;;;;;;3.95;1.60;;;15.70;94.40;;;;;;10175986;29;20401;-62
2022/09/25 19:22:02;;;;;;;3.03;1.60;;;15.70;94.40;;;;;;10194131;29;20036;-63
2022/09/25 19:27:05;;;;;;;1.83;1.33;;;15.70;94.40;;;;;;10193575;29;20406;-61
2022/09/25 19:32:07;;;;;;;1.77;1.40;;;15.70;94.30;;;;;;10193352;29;20126;-72
2022/09/25 19:37:08;;;;;;;3.00;1.30;;;15.60;94.30;;;;;;10193481;29;20170;-62
2022/09/25 19:42:09;;;;;;;3.05;1.13;;;15.60;94.30;;;;;;10191060;29;20115;-61
2022/09/25 19:47:10;;;;;;;5.00;1.10;;;15.60;94.30;;;;;;10195571;29;20028;-61
2022/09/25 19:52:10;;;;;;;2.55;1.30;;;15.60;94.30;;;;;;10192637;29;20044;-61
2022/09/25 19:57:11;;;;;;;2.50;1.23;;;15.60;94.30;;;;;;10195638;29;20045;-62
2022/09/25 20:02:12;;;;;;;2.63;1.40;;;15.60;94.30;;;;;;10200211;29;20598;-61
2022/09/25 20:07:16;;;;;;;2.58;1.15;;;15.60;94.30;;;;;;10204228;29;20044;-62
2022/09/25 20:12:17;;;;;;;2.00;1.05;;;15.50;94.20;;;;;;10196277;29;20406;-61
2022/09/25 20:17:17;;;;;;;1.58;1.25;;;15.50;94.20;;;;;;10198676;29;20023;-61
2022/09/25 20:22:18;;;;;;;1.50;1.20;;;15.50;94.20;;;;;;10183054;29;20123;-61
2022/09/25 20:27:19;;;;;;;2.28;1.20;;;15.40;94.20;;;;;;10196670;29;20170;-62
2022/09/25 20:32:19;;;;;;;1.95;1.27;;;15.40;94.20;;;;;;10192994;29;20044;-62
2022/09/25 20:37:21;;;;;;;1.80;1.27;;;15.40;94.20;;;;;;10176495;29;20032;-61
2022/09/25 20:42:22;;;;;;;1.83;1.25;;;15.40;94.20;;;;;;10196495;29;20042;-61
2022/09/25 20:47:22;;;;;;;2.55;1.20;;;15.40;94.20;;;;;;10197868;29;20031;-61
2022/09/25 20:52:23;;;;;;;2.20;1.10;;;15.30;94.10;;;;;;10200481;29;20122;-61
2022/09/25 20:57:24;;;;;;;2.85;1.27;;;15.40;94.10;;;;;;10196582;29;20548;-61
2022/09/25 21:02:25;;;;;;;2.08;1.10;;;15.30;94.10;;;;;;10193669;29;20161;-61
2022/09/25 21:07:26;;;;;;;1.15;1.05;;;15.30;94.10;;;;;;10198610;29;20063;-63
2022/09/25 21:12:27;;;;;;;2.38;1.20;;;15.30;94.10;;;;;;10194217;29;20031;-62
2022/09/25 21:17:28;;;;;;;1.23;0.95;;;15.30;94.30;;;;;;10182077;29;20036;-61
2022/09/25 21:22:28;;;;;;;2.05;0.93;;;15.30;94.10;;;;;;10202701;29;20404;-61
2022/09/25 21:27:29;;;;;;;1.85;0.95;;;15.30;94.10;;;;;;10196571;29;20381;-61
2022/09/25 21:32:30;;;;;;;1.13;0.82;;;15.20;94.10;;;;;;10195538;29;20039;-61
2022/09/25 21:37:30;;;;;;;2.60;1.10;;;15.20;94.00;;;;;;10197746;29;20020;-67
2022/09/25 21:42:31;;;;;;;1.63;0.90;;;15.20;94.10;;;;;;10195139;29;20040;-61
2022/09/25 21:47:32;;;;;;;2.00;1.10;;;15.20;94.10;;;;;;10200372;29;20513;-61
2022/09/25 21:52:33;;;;;;;1.60;0.90;;;15.20;94.00;;;;;;10196406;29;20040;-61
2022/09/25 21:57:34;;;;;;;0.93;0.73;;;15.20;94.10;;;;;;10192312;29;20031;-61
2022/09/25 22:02:34;;;;;;;2.25;1.00;;;15.20;94.00;;;;;;10197118;29;20370;-61
2022/09/25 22:07:35;;;;;;;2.05;1.08;;;15.20;94.10;;;;;;10197800;29;20484;-61
2022/09/25 22:12:36;;;;;;;2.08;0.88;;;15.20;94.10;;;;;;10197345;29;20714;-61
2022/09/25 22:17:36;;;;;;;1.13;0.73;;;15.10;94.00;;;;;;10208984;29;20438;-61
2022/09/25 22:22:37;;;;;;;1.23;0.60;;;15.10;94.00;;;;;;10204611;29;20481;-62
2022/09/25 22:27:38;;;;;;;1.00;0.70;;;15.10;94.00;;;;;;10200687;29;20032;-61
2022/09/25 22:32:39;;;;;;;2.45;1.00;;;15.10;94.00;;;;;;10203388;29;20473;-61
2022/09/25 22:37:39;;;;;;;1.75;0.90;;;15.10;94.00;;;;;;10209440;29;20032;-62
2022/09/25 22:42:40;;;;;;;1.40;0.80;;;15.10;94.10;;;;;;10216067;29;20031;-61
2022/09/25 22:47:41;;;;;;;3.40;0.70;;;15.10;94.00;;;;;;10213348;29;20118;-61
2022/09/25 22:52:42;;;;;;;1.80;1.00;;;15.10;94.00;;;;;;10203956;29;20062;-61
2022/09/25 22:57:42;;;;;;;1.75;0.80;;;15.10;94.00;;;;;;10197925;29;20420;-61
2022/09/25 23:02:43;;;;;;;1.40;0.80;;;15.10;94.00;;;;;;10209877;29;20076;-61
2022/09/25 23:07:44;;;;;;;1.20;1.00;;;15.10;94.10;;;;;;10201776;29;20081;-62
2022/09/25 23:12:45;;;;;;;1.85;1.25;;;15.00;94.00;;;;;;10199596;29;20075;-61
2022/09/25 23:17:45;;;;;;;1.27;0.90;;;15.00;94.00;;;;;;10201003;29;20040;-62
2022/09/25 23:22:46;;;;;;;2.13;1.00;;;15.00;94.00;;;;;;10213047;29;20126;-61
2022/09/25 23:27:47;;;;;;;1.40;1.05;;;15.00;94.10;;;;;;10198631;29;20050;-61
2022/09/25 23:32:47;;;;;;;1.50;1.10;;;15.00;94.30;;;;;;10200356;29;20159;-61
2022/09/25 23:37:48;;;;;;;1.58;1.25;;;15.00;94.10;;;;;;10216227;29;20035;-61
2022/09/25 23:42:49;;;;;;;1.08;0.95;;;15.00;94.10;;;;;;10202241;29;20027;-61
2022/09/25 23:47:49;;;;;;;2.00;1.05;;;15.00;94.10;;;;;;10190619;29;20043;-61
2022/09/25 23:52:50;;;;;;;2.70;1.30;;;14.90;94.10;;;;;;10216806;29;20420;-61
2022/09/25 23:57:52;;;;;;;10.23;1.42;;;14.90;94.10;;;;;;10209640;29;20115;-61
